Dallas, Texas
Traffic Map
Current Weather Conditions
Dallas, Texas
Broken Clouds
Broken Clouds
23°
Feels Like: 23°
Wind Chill: 23° Ceiling: 4600
Heat Index: 23° Visibility: 10mi
Dew Point: 14° Wind: 8mph
Humidity: 55% Direction: 60° (ENE)
Pressure: 30.16in Gusts: 0mph
Raw Report DataKDAL 221153Z 06007KT 10SM BKN046 BKN080 BKN300 23/14 A3016 RMK AO2 RAB43E52 SLP206 SHRA DSNT E-SE P0000 60000 T02330139 10261 20233 53011
Traffic Incident Summary
Active as of:
Severity:
Category:
InformationThere was an issue retrieving the traffic information for this location. Please try a different location or try again shortly.
Advertisements
Track Severe Weather on mobile